IW5AKT-5 Musigliano PI IT current weather conditions

sailwx.info

Wind from 142 at 3 knots gusting 3

Air temperature 6.7° C
Dewpoint -0.3° C

Last reported at 2019-Dec-13 23:53 UTC.
Time now 2019-Dec-14 00:29 UTC

Location: N 43°42' E 010°27'.
View on Google Maps.

See reports from other nearby stations

  
Tides and Currents Weather Stations Pressure Air Temp Water Temp Dewpoint Dewpoint Depression Visibility Wind Speed Wind Dir Waves Ship Positions
date/time (UTC)wind fromknots sea level pressurealtimeterstation pressurevisibilityair tempwater tempwave heightnotes
2019-Dec-14 00:09 142 0 gusting 1 7.2
2019-Dec-14 00:03 142 0 gusting 1 6.7
2019-Dec-13 23:53 142 3 gusting 3 6.7
2019-Dec-13 23:50 142 1 gusting 2 6.7
2019-Dec-13 23:43 142 1 gusting 2 6.7
2019-Dec-13 23:39 180 1 gusting 2 6.7
2019-Dec-13 23:33 135 1 gusting 1 7.2
2019-Dec-13 23:29 180 1 gusting 2 7.2
2019-Dec-13 23:23 135 1 gusting 2 7.8
2019-Dec-13 23:19 180 0 gusting 1 8.3
2019-Dec-13 23:13 8.3
2019-Dec-13 23:10 045 1 gusting 1 8.3
2019-Dec-13 23:03 142 0 gusting 1 8.3
2019-Dec-13 23:00 045 1 gusting 2 8.3
2019-Dec-13 22:53 045 1 gusting 2 8.3
2019-Dec-13 22:50 045 2 gusting 4 8.3
2019-Dec-13 22:43 045 1 gusting 3 8.9
2019-Dec-13 22:40 8.9
2019-Dec-13 22:34 142 3 gusting 4 9.4
2019-Dec-13 22:30 142 3 gusting 4 9.4
2019-Dec-13 22:23 142 6 gusting 8 9.4
2019-Dec-13 22:20 225 6 gusting 9 9.4
2019-Dec-13 22:13 142 4 gusting 6 8.9
2019-Dec-13 22:09 142 6 gusting 6 8.9
2019-Dec-13 22:03 8.9
2019-Dec-13 21:59 142 6 gusting 7 8.9
2019-Dec-13 21:54 142 5 gusting 7 8.3
2019-Dec-13 21:50 270 6 gusting 7 8.3
2019-Dec-13 21:43 270 4 gusting 6 7.8
2019-Dec-13 21:40 7.8
2019-Dec-13 21:34 270 1 gusting 3 7.8
2019-Dec-13 21:30 142 1 gusting 3 7.8
2019-Dec-13 21:23 7.8
2019-Dec-13 21:19 7.8
2019-Dec-13 21:13 7.8
2019-Dec-13 21:10 142 3 gusting 3 7.8
2019-Dec-13 21:03 7.8
2019-Dec-13 21:00 7.8
2019-Dec-13 20:53 7.8
2019-Dec-13 20:50 142 1 gusting 2 7.8
2019-Dec-13 20:43 045 1 gusting 3 7.8
2019-Dec-13 20:40 142 0 gusting 1 7.8
2019-Dec-13 20:33 142 0 gusting 1 7.8
2019-Dec-13 20:30 7.8
2019-Dec-13 20:23 045 0 gusting 1 7.2
2019-Dec-13 20:20 045 0 gusting 1 7.2
2019-Dec-13 20:13 045 0 gusting 1 7.2
2019-Dec-13 20:09 045 7.2
2019-Dec-13 20:03 045 1 gusting 1 7.2
2019-Dec-13 20:00 7.2
2019-Dec-13 19:54 7.2
2019-Dec-13 19:49 7.2
2019-Dec-13 19:43 7.2
2019-Dec-13 19:40 7.2
2019-Dec-13 19:33 7.2
2019-Dec-13 19:29 7.2
2019-Dec-13 19:23 7.2
2019-Dec-13 19:20 7.8
2019-Dec-13 19:13 7.8
2019-Dec-13 19:10 7.8
2019-Dec-13 19:03 142 1 gusting 1 7.8
2019-Dec-13 19:00 142 0 gusting 1 7.8
2019-Dec-13 18:53 7.8
2019-Dec-13 18:50 142 0 gusting 1 7.8
2019-Dec-13 18:43 142 2 gusting 3 7.2
2019-Dec-13 18:39 142 2 gusting 3 7.2
2019-Dec-13 18:33 045 1 gusting 2 7.2
2019-Dec-13 18:29 7.2
2019-Dec-13 18:23 7.8
2019-Dec-13 18:19 7.8
2019-Dec-13 18:14 142 3 gusting 6 7.8
2019-Dec-13 18:09 7.2
2019-Dec-13 18:03 142 2 gusting 3 7.2
2019-Dec-13 17:59 142 2 gusting 3 7.2
2019-Dec-13 17:54 142 1 gusting 2 7.2
2019-Dec-13 17:50 142 1 gusting 1 7.2
2019-Dec-13 17:43 7.2
2019-Dec-13 17:40 7.2
2019-Dec-13 17:33 142 3 gusting 6 7.2
2019-Dec-13 17:29 7.2
2019-Dec-13 17:24 7.8
2019-Dec-13 17:20 142 3 gusting 3 7.8
2019-Dec-13 17:13 142 1 gusting 3 7.8
2019-Dec-13 17:09 7.8
2019-Dec-13 17:04 270 4 gusting 6 8.3
2019-Dec-13 16:59 8.3
2019-Dec-13 16:53 142 6 gusting 6 8.3
2019-Dec-13 16:49 142 6 gusting 10 8.3
2019-Dec-13 16:43 142 6 gusting 7 8.3
2019-Dec-13 16:39 270 6 gusting 9 8.3
2019-Dec-13 16:33 142 6 gusting 8 8.3
2019-Dec-13 16:29 142 6 gusting 8 8.3
2019-Dec-13 16:23 045 5 gusting 7 8.3
2019-Dec-13 16:19 8.3
2019-Dec-13 16:13 8.3
2019-Dec-13 16:09 8.3
2019-Dec-13 16:03 8.3
2019-Dec-13 15:59 142 5 gusting 6 8.3
2019-Dec-13 15:53 8.9
2019-Dec-13 15:49 8.9
2019-Dec-13 15:43 142 4 gusting 6 9.4
2019-Dec-13 15:39 045 3 gusting 4 9.4
2019-Dec-13 15:33 9.4
2019-Dec-13 15:29 142 4 gusting 6 9.4
2019-Dec-13 15:23 270 4 gusting 6 10.0
2019-Dec-13 15:19 142 6 gusting 8 10.0
2019-Dec-13 15:13 10.0
2019-Dec-13 15:09 10.0
2019-Dec-13 15:03 142 7 gusting 10 10.6
2019-Dec-13 14:59 142 9 gusting 13 10.6
2019-Dec-13 14:53 142 8 gusting 10 10.6
2019-Dec-13 14:50 142 8 gusting 10 10.6
2019-Dec-13 14:43 270 9 gusting 13 10.6
2019-Dec-13 14:39 142 6 gusting 9 10.6
2019-Dec-13 14:33 142 6 gusting 10 11.1
2019-Dec-13 14:29 142 11 gusting 15 11.1
2019-Dec-13 14:23 11.1
2019-Dec-13 14:19 270 9 gusting 13 11.1
2019-Dec-13 14:13 270 9 gusting 15 11.1
2019-Dec-13 14:09 270 7 gusting 11 11.1
2019-Dec-13 14:03 142 13 gusting 19 11.1
2019-Dec-13 13:59 130 6 gusting 9 11.1
2019-Dec-13 13:54 270 7 gusting 10 11.7
2019-Dec-13 13:49 270 8 gusting 11 11.7
2019-Dec-13 13:43 270 5 gusting 6 11.7
2019-Dec-13 13:39 11.7
2019-Dec-13 13:34 11.7
2019-Dec-13 13:29 270 8 gusting 12 11.7
2019-Dec-13 13:23 142 10 gusting 12 11.7
2019-Dec-13 13:19 225 13 gusting 15 11.7
2019-Dec-13 13:14 142 9 gusting 13 11.7
2019-Dec-13 13:09 270 9 gusting 13 11.7
2019-Dec-13 13:03 270 13 gusting 14 11.7
2019-Dec-13 13:00 180 7 gusting 10 11.7
2019-Dec-13 12:53 270 6 gusting 9 11.1
2019-Dec-13 12:50 270 2 gusting 3 11.1
2019-Dec-13 12:43 142 6 gusting 6 11.1
2019-Dec-13 12:39 142 3 gusting 5 10.6
2019-Dec-13 12:34 142 3 gusting 5 10.6
2019-Dec-13 12:29 142 2 gusting 3 10.6
2019-Dec-13 12:23 142 7 gusting 9 10.0
2019-Dec-13 12:19 142 7 gusting 9 10.0
2019-Dec-13 12:13 142 5 gusting 6 10.0
2019-Dec-13 12:10 270 5 gusting 6 10.0
2019-Dec-13 12:03 135 3 gusting 5 9.4
2019-Dec-13 11:59 135 5 gusting 8 9.4
2019-Dec-13 11:53 142 6 gusting 11 9.4
2019-Dec-13 11:49 135 6 gusting 9 9.4
2019-Dec-13 11:43 142 6 gusting 9 9.4
2019-Dec-13 11:40 180 6 gusting 8 9.4
2019-Dec-13 11:33 135 3 gusting 6 9.4
2019-Dec-13 11:29 180 4 gusting 6 9.4
2019-Dec-13 11:24 135 3 gusting 4 9.4
2019-Dec-13 11:20 135 3 gusting 4 9.4
2019-Dec-13 11:14 142 2 gusting 3 8.9
2019-Dec-13 11:08 315 1 gusting 3 8.3
2019-Dec-13 11:04 315 1 gusting 3 8.3
2019-Dec-13 10:59 142 3 gusting 3 8.3
2019-Dec-13 10:54 142 1 gusting 2 8.9
2019-Dec-13 10:49 8.3
2019-Dec-13 10:44 142 1 gusting 1 8.3
2019-Dec-13 10:39 142 3 gusting 5 7.8
2019-Dec-13 10:34 135 3 gusting 4 7.8
2019-Dec-13 10:29 142 2 gusting 3 7.8
2019-Dec-13 10:21 7.8
2019-Dec-13 10:19 180 3 gusting 3 7.8
2019-Dec-13 10:13 142 3 gusting 4 7.8
2019-Dec-13 10:09 142 1 gusting 2 7.8
2019-Dec-13 10:04 8.3
2019-Dec-13 09:59 142 1 gusting 3 8.3
2019-Dec-13 09:53 142 1 gusting 1 8.3
2019-Dec-13 09:49 180 1 gusting 1 8.9
2019-Dec-13 09:44 180 1 gusting 1 8.9
2019-Dec-13 09:40 142 0 gusting 0 8.9
2019-Dec-13 09:33 135 0 gusting 1 8.3
2019-Dec-13 09:30 180 0 gusting 1 8.3
2019-Dec-13 09:24 142 0 gusting 1 8.3
2019-Dec-13 09:19 135 1 gusting 2 8.3
2019-Dec-13 09:13 135 1 gusting 1 8.3
2019-Dec-13 09:09 135 1 gusting 3 8.3
2019-Dec-13 09:03 045 1 gusting 3 8.3
2019-Dec-13 08:59 142 3 gusting 3 8.3
2019-Dec-13 08:53 135 2 gusting 3 8.3
2019-Dec-13 08:49 135 1 gusting 3 7.8
2019-Dec-13 08:43 142 5 gusting 6 7.8
2019-Dec-13 08:39 142 3 gusting 5 8.3
2019-Dec-13 08:34 142 1 gusting 1 8.3
2019-Dec-13 08:29 142 1 gusting 1 8.3
2019-Dec-13 08:24 045 3 gusting 5 8.3
2019-Dec-13 08:19 135 2 gusting 3 8.3
2019-Dec-13 08:13 142 1 gusting 3 8.3
2019-Dec-13 08:09 180 1 gusting 3 8.3
2019-Dec-13 08:03 135 1 gusting 1 7.8
2019-Dec-13 07:59 135 2 gusting 3 7.8
2019-Dec-13 07:53 142 3 gusting 4 7.8
2019-Dec-13 07:49 135 4 gusting 6 7.8
2019-Dec-13 07:44 180 1 gusting 1 7.8
2019-Dec-13 07:39 180 1 gusting 2 7.8
2019-Dec-13 07:33 180 1 gusting 2 7.8
2019-Dec-13 07:29 180 1 gusting 2 7.8
2019-Dec-13 07:23 135 0 gusting 1 7.8
2019-Dec-13 07:20 142 1 gusting 1 7.8
2019-Dec-13 07:13 135 0 gusting 1 7.2
2019-Dec-13 07:09 142 0 gusting 1 7.2
2019-Dec-13 07:04 135 3 gusting 4 7.2
2019-Dec-13 06:59 045 1 gusting 1 7.2
2019-Dec-13 06:54 142 1 gusting 1 7.2
2019-Dec-13 06:49 180 6.7
2019-Dec-13 06:43 225 0 gusting 1 6.7
2019-Dec-13 06:40 270 0 gusting 1 6.7
2019-Dec-13 06:34 180 0 gusting 1 6.7
2019-Dec-13 06:30 135 2 gusting 3 6.1
2019-Dec-13 06:23 142 1 gusting 2 6.1
2019-Dec-13 06:19 045 1 gusting 2 6.1
2019-Dec-13 06:13 045 1 gusting 1 6.1
2019-Dec-13 06:09 6.1
2019-Dec-13 06:03 142 6.1
2019-Dec-13 05:59 142 0 gusting 1 5.6
2019-Dec-13 05:53 142 0 gusting 1 5.6
2019-Dec-13 05:49 045 0 gusting 1 5.6
2019-Dec-13 05:43 142 0 gusting 1 5.6
2019-Dec-13 05:39 142 5.6
2019-Dec-13 05:34 5.6
2019-Dec-13 05:29 180 0 gusting 1 5.6
2019-Dec-13 05:23 270 1 gusting 2 5.0
2019-Dec-13 05:19 5.0
2019-Dec-13 05:13 142 5.0
2019-Dec-13 05:09 180 1 gusting 1 5.0
2019-Dec-13 05:03 045 1 gusting 1 5.0
2019-Dec-13 04:59 045 1 gusting 1 5.0
2019-Dec-13 04:53 5.0
2019-Dec-13 04:49 045 1 gusting 3 5.0
2019-Dec-13 04:43 045 3 gusting 3 5.0
2019-Dec-13 04:39 045 3 gusting 3 5.0
2019-Dec-13 04:33 045 1 gusting 2 5.0
2019-Dec-13 04:29 5.0
2019-Dec-13 04:24 270 0 gusting 1 5.0
2019-Dec-13 04:19 5.0
2019-Dec-13 04:13 142 5.0
2019-Dec-13 04:09 142 1 gusting 1 5.0
2019-Dec-13 04:03 225 2 gusting 3 5.0
2019-Dec-13 03:59 225 2 gusting 3 5.0
2019-Dec-13 03:53 135 1 gusting 1 5.0
2019-Dec-13 03:49 135 5.0
2019-Dec-13 03:43 045 1 gusting 1 5.0
2019-Dec-13 03:39 5.0
2019-Dec-13 03:34 5.0
2019-Dec-13 03:30 045 1 gusting 2 5.0
2019-Dec-13 03:23 4.4
2019-Dec-13 03:19 142 2 gusting 3 4.4
2019-Dec-13 03:13 142 4.4
2019-Dec-13 03:09 045 1 gusting 1 4.4
2019-Dec-13 03:03 045 0 gusting 1 4.4
2019-Dec-13 02:59 045 1 gusting 2 4.4
2019-Dec-13 02:53 142 0 gusting 1 4.4
2019-Dec-13 02:49 142 0 gusting 1 4.4
2019-Dec-13 02:43 142 4.4
2019-Dec-13 02:39 045 4.4
2019-Dec-13 02:33 045 0 gusting 1 4.4
2019-Dec-13 02:29 135 0 gusting 1 4.4
2019-Dec-13 02:23 180 4.4
2019-Dec-13 02:19 180 4.4
2019-Dec-13 02:13 045 0 gusting 1 4.4
2019-Dec-13 02:09 4.4
2019-Dec-13 02:03 4.4
2019-Dec-13 01:59 045 1 gusting 2 3.9
2019-Dec-13 01:53 142 1 gusting 1 3.9
2019-Dec-13 01:49 225 3 gusting 4 3.9
2019-Dec-13 01:44 225 1 gusting 2 3.9
2019-Dec-13 01:39 180 1 gusting 1 3.3
2019-Dec-13 01:33 3.3
2019-Dec-13 01:29 3.3
2019-Dec-13 01:23 142 3.3
2019-Dec-13 01:19 045 1 gusting 2 3.3
2019-Dec-13 01:13 045 2 gusting 3 3.3
2019-Dec-13 01:09 3.3
2019-Dec-13 01:03 225 0 gusting 1 3.3
2019-Dec-13 00:59 225 1 gusting 1 3.3
2019-Dec-13 00:53 225 1 gusting 2 2.8
2019-Dec-13 00:49 225 1 gusting 2 2.8
2019-Dec-13 00:43 225 1 gusting 2 2.8
2019-Dec-13 00:39 225 1 gusting 2 2.8
2019-Dec-13 00:33 225 1 gusting 1 2.8
2019-Dec-13 00:30 180 1 gusting 1 2.8
2019-Dec-13 00:23 180 0 gusting 1 2.8
2019-Dec-13 00:19 142 2.8
2019-Dec-13 00:13 180 2.8
2019-Dec-13 00:09 180 0 gusting 0 2.8
2019-Dec-13 00:03 180 0 gusting 1 2.8
2019-Dec-12 23:59 180 0 gusting 1 2.8
2019-Dec-12 23:53 135 2.8
2019-Dec-12 23:49 135 2.8
2019-Dec-12 23:43 135 0 gusting 1 2.8
2019-Dec-12 23:40 135 2.8
2019-Dec-12 23:33 142 0 gusting 1 2.8
2019-Dec-12 23:29 2.8
2019-Dec-12 23:23 045 2.8
2019-Dec-12 23:19 045 0 gusting 1 3.3
2019-Dec-12 23:13 045 1 gusting 1 3.3
2019-Dec-12 23:09 142 3.3
2019-Dec-12 23:03 142 0 gusting 0 3.3
2019-Dec-12 23:00 142 3.3
2019-Dec-12 22:53 3.3
2019-Dec-12 22:49 142 1 gusting 2 3.3
2019-Dec-12 22:43 142 1 gusting 2 3.3
2019-Dec-12 22:39 270 1 gusting 2 3.3
2019-Dec-12 22:33 225 1 gusting 1 3.3
2019-Dec-12 22:29 270 0 gusting 1 3.3
2019-Dec-12 22:23 270 1 gusting 1 3.3
2019-Dec-12 22:19 270 3.3
2019-Dec-12 22:13 270 0 gusting 1 3.3
2019-Dec-12 22:09 225 0 gusting 1 3.3
2019-Dec-12 22:03 142 1 gusting 2 3.3
2019-Dec-12 21:59 142 1 gusting 1 3.3
2019-Dec-12 21:54 045 3.3
2019-Dec-12 21:49 045 0 gusting 1 3.3
2019-Dec-12 21:43 045 0 gusting 1 3.3
2019-Dec-12 21:40 3.3
2019-Dec-12 21:34 045 1 gusting 1 3.3
2019-Dec-12 21:29 3.3
2019-Dec-12 21:23 3.3
2019-Dec-12 21:19 142 0 gusting 1 3.9
2019-Dec-12 21:13 045 2 gusting 3 3.9
2019-Dec-12 21:09 3.3
2019-Dec-12 21:04 3.3
2019-Dec-12 21:00 3.3
2019-Dec-12 20:54 3.3
2019-Dec-12 20:49 142 1 gusting 2 3.3
2019-Dec-12 20:43 270 0 gusting 0 3.3
2019-Dec-12 20:39 270 3.3
2019-Dec-12 20:34 270 3.3
2019-Dec-12 20:29 225 1 gusting 2 3.3
2019-Dec-12 20:24 142 0 gusting 1 3.9
2019-Dec-12 20:20 045 0 gusting 1 3.9
2019-Dec-12 20:13 3.9
2019-Dec-12 20:09 142 3.9
2019-Dec-12 20:03 3.9
2019-Dec-12 19:59 045 2 gusting 3 3.9
2019-Dec-12 19:54 045 1 gusting 2 3.9
2019-Dec-12 19:50 4.4
2019-Dec-12 19:43 142 2 gusting 3 4.4
2019-Dec-12 19:40 142 2 gusting 3 4.4
2019-Dec-12 19:34 045 1 gusting 2 4.4
2019-Dec-12 19:29 045 1 gusting 2 4.4
2019-Dec-12 19:23 142 4.4
2019-Dec-12 19:19 142 0 gusting 1 4.4
2019-Dec-12 19:13 045 5.0
2019-Dec-12 19:09 045 0 gusting 1 5.0
2019-Dec-12 19:03 135 1 gusting 2 5.0
2019-Dec-12 19:00 135 1 gusting 3 5.0
2019-Dec-12 18:53 142 3 gusting 5 5.0
2019-Dec-12 18:49 142 3 gusting 6 5.0
2019-Dec-12 18:43 142 3 gusting 4 5.0
2019-Dec-12 18:39 135 3 gusting 5 5.0
2019-Dec-12 18:33 135 2 gusting 3 5.0
2019-Dec-12 18:29 135 5 gusting 7 4.4
2019-Dec-12 18:23 135 2 gusting 3 4.4
2019-Dec-12 18:19 180 1 gusting 2 4.4
2019-Dec-12 18:13 135 2 gusting 3 4.4
2019-Dec-12 18:09 180 4 gusting 6 4.4
2019-Dec-12 18:03 135 1 gusting 2 5.0
2019-Dec-12 17:59 142 0 gusting 1 5.0
2019-Dec-12 17:53 135 1 gusting 2 5.0
2019-Dec-12 17:50 135 1 gusting 2 5.0
2019-Dec-12 17:44 142 1 gusting 3 5.0
2019-Dec-12 17:39 142 1 gusting 2 5.6
2019-Dec-12 17:34 142 4 gusting 6 5.6
2019-Dec-12 17:30 142 3 gusting 5 5.6
2019-Dec-12 17:24 142 2 gusting 4 5.6
2019-Dec-12 17:19 135 2 gusting 3 5.6
2019-Dec-12 17:13 180 3 gusting 4 5.6
2019-Dec-12 17:09 180 3 gusting 4 5.6
2019-Dec-12 17:03 180 3 gusting 4 5.6
2019-Dec-12 16:59 135 2 gusting 4 5.6
2019-Dec-12 16:53 180 3 gusting 3 5.6
2019-Dec-12 16:49 180 1 gusting 3 5.6
2019-Dec-12 16:43 225 1 gusting 2 5.6
2019-Dec-12 16:39 135 1 gusting 2 5.6
2019-Dec-12 16:33 180 1 gusting 2 6.1
2019-Dec-12 16:29 142 1 gusting 2 6.1
2019-Dec-12 16:23 045 1 gusting 1 6.1
2019-Dec-12 16:19 045 1 gusting 2 6.1
2019-Dec-12 16:13 135 0 gusting 1 6.1
2019-Dec-12 16:09 135 1 gusting 2 6.1
2019-Dec-12 16:03 142 6.7
2019-Dec-12 15:59 135 2 gusting 3 6.7
2019-Dec-12 15:54 135 2 gusting 3 6.7
2019-Dec-12 15:50 135 4 gusting 6 6.7
2019-Dec-12 15:44 142 3 gusting 5 7.2
2019-Dec-12 15:40 135 2 gusting 3 7.2
2019-Dec-12 15:34 135 3 gusting 4 7.8
2019-Dec-12 15:30 135 2 gusting 3 7.8
2019-Dec-12 15:24 225 4 gusting 6 7.8
2019-Dec-12 15:20 135 1 gusting 3 8.3
2019-Dec-12 15:13 142 3 gusting 6 8.3
2019-Dec-12 15:09 142 3 gusting 5 8.9
2019-Dec-12 15:03 142 3 gusting 5 9.4
2019-Dec-12 14:59 135 4 gusting 6 9.4
2019-Dec-12 14:54 142 1 gusting 1 9.4
2019-Dec-12 14:49 142 1 gusting 3 9.4
2019-Dec-12 14:44 135 2 gusting 4 9.4
2019-Dec-12 14:39 135 1 gusting 2 9.4
2019-Dec-12 14:34 135 2 gusting 4 9.4
2019-Dec-12 14:29 180 5 gusting 6 10.0
2019-Dec-12 14:23 135 3 gusting 6 10.0
2019-Dec-12 14:19 180 1 gusting 3 10.0
2019-Dec-12 14:13 135 3 gusting 5 10.0
2019-Dec-12 14:10 142 2 gusting 3 10.6
2019-Dec-12 14:04 135 2 gusting 5 10.6
2019-Dec-12 14:00 135 3 gusting 3 10.6
2019-Dec-12 13:54 338 3 gusting 4 10.0
2019-Dec-12 13:49 180 1 gusting 1 10.0
2019-Dec-12 13:43 180 4 gusting 5 10.0
2019-Dec-12 13:40 142 3 gusting 4 10.0
2019-Dec-12 13:34 142 3 gusting 5 10.0
2019-Dec-12 13:29 135 2 gusting 3 10.0
2019-Dec-12 13:23 135 4 gusting 5 10.0
2019-Dec-12 13:19 180 3 gusting 5 10.0
2019-Dec-12 13:13 180 1 gusting 1 9.4
2019-Dec-12 13:09 270 8.9
2019-Dec-12 13:03 270 0 gusting 1 8.9
2019-Dec-12 12:59 142 0 gusting 1 8.9
2019-Dec-12 12:54 142 3 gusting 3 8.9
2019-Dec-12 12:49 045 1 gusting 2 8.9
2019-Dec-12 12:44 142 3 gusting 4 8.9
2019-Dec-12 12:39 8.9
2019-Dec-12 12:33 045 3 gusting 4 8.9
2019-Dec-12 12:29 8.9
2019-Dec-12 12:23 8.9
2019-Dec-12 12:20 142 2 gusting 3 9.4
2019-Dec-12 12:13 9.4
2019-Dec-12 12:09 180 3 gusting 3 9.4
2019-Dec-12 12:03 180 3 gusting 3 9.4
2019-Dec-12 11:59 142 1 gusting 2 9.4
2019-Dec-12 11:54 10.0
2019-Dec-12 11:50 045 2 gusting 3 10.0
2019-Dec-12 11:43 142 1 gusting 2 10.0
2019-Dec-12 11:40 10.0
2019-Dec-12 11:33 142 1 gusting 2 10.0
2019-Dec-12 11:30 135 2 gusting 3 10.0
2019-Dec-12 11:23 180 3 gusting 4 9.4
2019-Dec-12 11:19 135 2 gusting 3 9.4
2019-Dec-12 11:13 135 1 gusting 1 9.4
2019-Dec-12 11:09 142 2 gusting 3 8.9
2019-Dec-12 11:03 180 2 gusting 3 8.9
2019-Dec-12 10:59 135 3 gusting 6 8.9
2019-Dec-12 10:53 180 2 gusting 3 8.9
2019-Dec-12 10:49 180 2 gusting 3 8.9
2019-Dec-12 10:43 180 3 gusting 5 9.4
2019-Dec-12 10:40 180 6 gusting 6 9.4
2019-Dec-12 10:33 180 5 gusting 6 9.4
2019-Dec-12 10:30 180 4 gusting 6 9.4
2019-Dec-12 10:23 142 2 gusting 3 9.4
2019-Dec-12 10:19 135 0 gusting 1 8.9
2019-Dec-12 10:13 270 1 gusting 1 8.9
2019-Dec-12 10:09 142 1 gusting 2 8.9
2019-Dec-12 10:03 270 8.9
2019-Dec-12 09:59 225 0 gusting 1 8.9
2019-Dec-12 09:54 270 1 gusting 1 8.3
2019-Dec-12 09:49 142 1 gusting 2 8.3
2019-Dec-12 09:43 142 1 gusting 1 8.3
2019-Dec-12 09:39 7.8
2019-Dec-12 09:33 270 1 gusting 1 7.8
2019-Dec-12 09:29 142 1 gusting 2 7.8
2019-Dec-12 09:23 270 0 gusting 1 7.8
2019-Dec-12 09:19 142 1 gusting 1 7.8
2019-Dec-12 09:13 142 1 gusting 2 7.2
2019-Dec-12 09:09 7.2
2019-Dec-12 09:03 045 3 gusting 3 7.2
2019-Dec-12 08:59 142 3 gusting 6 7.2
2019-Dec-12 08:54 142 5 gusting 6 7.2
2019-Dec-12 08:49 6.7
2019-Dec-12 08:43 142 0 gusting 1 6.7
2019-Dec-12 08:39 142 1 gusting 2 6.7
2019-Dec-12 08:33 6.7
2019-Dec-12 08:30 142 1 gusting 1 6.7
2019-Dec-12 08:23 270 1 gusting 2 6.7
2019-Dec-12 08:20 270 1 gusting 3 6.7
2019-Dec-12 08:13 270 1 gusting 3 6.7
2019-Dec-12 08:09 142 3 gusting 4 6.1
2019-Dec-12 08:04 142 3 gusting 3 6.1
2019-Dec-12 07:59 142 3 gusting 3 6.1
2019-Dec-12 07:53 270 3 gusting 4 6.1
2019-Dec-12 07:49 270 2 gusting 3 6.1
2019-Dec-12 07:43 142 1 gusting 2 6.7
2019-Dec-12 07:39 6.7
2019-Dec-12 07:33 142 5 gusting 6 6.1
2019-Dec-12 07:30 142 4 gusting 6 6.7
2019-Dec-12 07:23 6.7
2019-Dec-12 07:19 142 1 gusting 2 6.1
2019-Dec-12 07:09 045 0 gusting 1 6.1
2019-Dec-12 07:03 045 1 gusting 1 6.1
2019-Dec-12 07:00 045 1 gusting 1 6.1
2019-Dec-12 06:53 6.7
2019-Dec-12 06:50 142 0 gusting 1 6.7
2019-Dec-12 06:43 6.7
2019-Dec-12 06:39 6.7
2019-Dec-12 06:33 6.7
2019-Dec-12 06:30 6.7
2019-Dec-12 06:24 045 1 gusting 2 6.7
2019-Dec-12 06:19 142 6.7
2019-Dec-12 06:13 142 1 gusting 2 7.2
2019-Dec-12 06:09 135 1 gusting 3 7.2
2019-Dec-12 06:04 135 4 gusting 6 6.7
2019-Dec-12 05:59 130 1 gusting 3 6.7
2019-Dec-12 05:53 135 3 gusting 5 7.2
2019-Dec-12 05:49 180 2 gusting 3 7.2
2019-Dec-12 05:43 142 3 gusting 6 6.7
2019-Dec-12 05:39 135 1 gusting 4 6.7
2019-Dec-12 05:33 225 2 gusting 3 7.2
2019-Dec-12 05:29 135 3 gusting 5 7.2
2019-Dec-12 05:24 135 2 gusting 6 7.2
2019-Dec-12 05:20 142 2 gusting 3 6.7
2019-Dec-12 05:13 180 0 gusting 1 6.7
2019-Dec-12 05:09 7.2
2019-Dec-12 05:03 7.2
2019-Dec-12 04:59 045 1 gusting 2 6.7
2019-Dec-12 04:53 135 2 gusting 3 6.7
2019-Dec-12 04:49 135 3 gusting 4 6.7
2019-Dec-12 04:43 135 2 gusting 3 6.7
2019-Dec-12 04:39 142 1 gusting 1 6.7
2019-Dec-12 04:33 180 6.7
2019-Dec-12 04:29 180 1 gusting 1 6.7
2019-Dec-12 04:23 142 1 gusting 1 6.7
2019-Dec-12 04:19 045 1 gusting 1 6.7
2019-Dec-12 04:13 045 1 gusting 1 6.7
2019-Dec-12 04:09 6.7
2019-Dec-12 04:03 6.7
2019-Dec-12 03:59 270 3 gusting 4 6.7
2019-Dec-12 03:53 142 1 gusting 2 6.7
2019-Dec-12 03:49 045 1 gusting 2 6.7
2019-Dec-12 03:43 270 1 gusting 2 6.7
2019-Dec-12 03:39 045 3 gusting 4 6.7
2019-Dec-12 03:33 270 2 gusting 3 6.7
2019-Dec-12 03:29 6.7
2019-Dec-12 03:23 225 0 gusting 1 6.1
2019-Dec-12 03:19 045 1 gusting 2 6.1
2019-Dec-12 03:13 045 0 gusting 1 6.1
2019-Dec-12 03:09 045 0 gusting 1 6.1
2019-Dec-12 03:03 045 3 gusting 3 6.1
2019-Dec-12 02:59 045 1 gusting 2 6.1
2019-Dec-12 02:53 045 1 gusting 3 6.1
2019-Dec-12 02:49 142 0 gusting 0 6.1
2019-Dec-12 02:43 225 0 gusting 1 6.1
2019-Dec-12 02:39 6.1
2019-Dec-12 02:33 142 0 gusting 1 6.1
2019-Dec-12 02:29 142 0 gusting 1 6.1
2019-Dec-12 02:23 225 0 gusting 1 6.1
2019-Dec-12 02:19 180 0 gusting 1 5.6
2019-Dec-12 02:13 180 2 gusting 3 5.6
2019-Dec-12 02:09 135 1 gusting 1 5.6
2019-Dec-12 02:03 142 2 gusting 3 5.6
2019-Dec-12 02:00 045 1 gusting 2 5.6
2019-Dec-12 01:54 6.1
2019-Dec-12 01:49 045 2 gusting 3 6.1
2019-Dec-12 01:43 142 2 gusting 3 6.1
2019-Dec-12 01:39 6.1
2019-Dec-12 01:33 6.1
2019-Dec-12 01:29 6.1
2019-Dec-12 01:24 142 0 gusting 1 6.7
2019-Dec-12 01:20 6.7
2019-Dec-12 01:13 142 1 gusting 3 6.7
2019-Dec-12 01:09 142 0 gusting 1 6.7
2019-Dec-12 01:03 142 2 gusting 3 6.7
2019-Dec-12 01:00 045 1 gusting 3 6.7
2019-Dec-12 00:54 142 2 gusting 3 6.7
2019-Dec-12 00:49 142 2 gusting 3 6.7
2019-Dec-12 00:43 142 3 gusting 3 6.7
2019-Dec-12 00:39 142 2 gusting 3 6.7
2019-Dec-12 00:33 142 2 gusting 3 6.7
2019-Dec-12 00:29 135 0 gusting 1 6.7
2019-Dec-12 00:24 135 1 gusting 2 6.7
2019-Dec-12 00:20 135 1 gusting 1 6.7
2019-Dec-12 00:14 142 3 gusting 5 6.7
2019-Dec-12 00:09 130 5 gusting 6 6.7
2019-Dec-12 00:03 180 5 gusting 6 6.7